sensor_id;sensor_type;location;lat;lon;timestamp;P1;durP1;ratioP1;P2;durP2;ratioP2
5549;SDS011;2798;42.716;23.256;2023-02-03T00:01:33;3.80;;;3.20;;
5549;SDS011;2798;42.716;23.256;2023-02-03T00:03:58;4.10;;;3.20;;
5549;SDS011;2798;42.716;23.256;2023-02-03T00:06:23;4.00;;;3.60;;
5549;SDS011;2798;42.716;23.256;2023-02-03T00:08:51;4.07;;;3.53;;
5549;SDS011;2798;42.716;23.256;2023-02-03T00:11:18;3.27;;;2.97;;
5549;SDS011;2798;42.716;23.256;2023-02-03T00:13:43;3.97;;;3.20;;
5549;SDS011;2798;42.716;23.256;2023-02-03T00:16:08;4.53;;;3.23;;
5549;SDS011;2798;42.716;23.256;2023-02-03T00:18:34;5.77;;;3.90;;
5549;SDS011;2798;42.716;23.256;2023-02-03T00:20:59;5.30;;;3.63;;
5549;SDS011;2798;42.716;23.256;2023-02-03T00:23:24;6.33;;;4.17;;
5549;SDS011;2798;42.716;23.256;2023-02-03T00:25:50;3.80;;;3.30;;
5549;SDS011;2798;42.716;23.256;2023-02-03T00:28:15;3.00;;;2.70;;
5549;SDS011;2798;42.716;23.256;2023-02-03T00:30:40;4.50;;;3.43;;
5549;SDS011;2798;42.716;23.256;2023-02-03T00:33:06;4.13;;;3.17;;
5549;SDS011;2798;42.716;23.256;2023-02-03T00:35:31;5.87;;;3.70;;
5549;SDS011;2798;42.716;23.256;2023-02-03T00:37:56;4.93;;;3.70;;
5549;SDS011;2798;42.716;23.256;2023-02-03T00:40:23;4.10;;;3.40;;
5549;SDS011;2798;42.716;23.256;2023-02-03T00:42:48;3.43;;;3.13;;
5549;SDS011;2798;42.716;23.256;2023-02-03T00:45:15;4.23;;;3.13;;
5549;SDS011;2798;42.716;23.256;2023-02-03T00:47:40;8.80;;;3.30;;
5549;SDS011;2798;42.716;23.256;2023-02-03T00:50:05;3.53;;;2.70;;
5549;SDS011;2798;42.716;23.256;2023-02-03T00:52:31;3.40;;;2.80;;
5549;SDS011;2798;42.716;23.256;2023-02-03T00:54:56;3.53;;;2.97;;
5549;SDS011;2798;42.716;23.256;2023-02-03T00:57:21;3.97;;;3.37;;
5549;SDS011;2798;42.716;23.256;2023-02-03T00:59:46;4.37;;;3.60;;
5549;SDS011;2798;42.716;23.256;2023-02-03T01:02:12;4.50;;;3.63;;
5549;SDS011;2798;42.716;23.256;2023-02-03T01:04:37;3.50;;;3.20;;
5549;SDS011;2798;42.716;23.256;2023-02-03T01:07:02;5.17;;;3.33;;
5549;SDS011;2798;42.716;23.256;2023-02-03T01:09:28;4.47;;;3.50;;
5549;SDS011;2798;42.716;23.256;2023-02-03T01:11:53;3.77;;;3.20;;
5549;SDS011;2798;42.716;23.256;2023-02-03T01:14:18;4.70;;;3.23;;
5549;SDS011;2798;42.716;23.256;2023-02-03T01:16:44;4.93;;;3.60;;
5549;SDS011;2798;42.716;23.256;2023-02-03T01:19:09;3.67;;;3.10;;
5549;SDS011;2798;42.716;23.256;2023-02-03T01:21:34;6.20;;;2.60;;
5549;SDS011;2798;42.716;23.256;2023-02-03T01:24:03;5.20;;;3.00;;
5549;SDS011;2798;42.716;23.256;2023-02-03T01:26:28;3.27;;;2.67;;
5549;SDS011;2798;42.716;23.256;2023-02-03T01:28:54;3.43;;;2.80;;
5549;SDS011;2798;42.716;23.256;2023-02-03T01:31:21;3.40;;;3.10;;
5549;SDS011;2798;42.716;23.256;2023-02-03T01:33:47;3.10;;;2.80;;
5549;SDS011;2798;42.716;23.256;2023-02-03T01:36:13;3.53;;;3.23;;
5549;SDS011;2798;42.716;23.256;2023-02-03T01:38:39;4.60;;;3.40;;
5549;SDS011;2798;42.716;23.256;2023-02-03T01:41:06;3.10;;;2.80;;
5549;SDS011;2798;42.716;23.256;2023-02-03T01:43:32;6.50;;;4.10;;
5549;SDS011;2798;42.716;23.256;2023-02-03T01:45:58;3.30;;;3.00;;
5549;SDS011;2798;42.716;23.256;2023-02-03T01:48:24;3.30;;;2.90;;
5549;SDS011;2798;42.716;23.256;2023-02-03T01:50:50;4.10;;;3.20;;
5549;SDS011;2798;42.716;23.256;2023-02-03T01:53:15;4.60;;;3.23;;
5549;SDS011;2798;42.716;23.256;2023-02-03T01:55:41;4.70;;;2.80;;
5549;SDS011;2798;42.716;23.256;2023-02-03T01:58:10;3.77;;;2.90;;
5549;SDS011;2798;42.716;23.256;2023-02-03T02:00:36;4.03;;;2.93;;
5549;SDS011;2798;42.716;23.256;2023-02-03T02:03:01;3.30;;;2.80;;
5549;SDS011;2798;42.716;23.256;2023-02-03T02:05:34;3.10;;;2.70;;
5549;SDS011;2798;42.716;23.256;2023-02-03T02:08:01;2.90;;;2.60;;
5549;SDS011;2798;42.716;23.256;2023-02-03T02:10:27;3.03;;;2.70;;
5549;SDS011;2798;42.716;23.256;2023-02-03T02:12:54;3.87;;;2.60;;
5549;SDS011;2798;42.716;23.256;2023-02-03T02:15:20;3.07;;;2.70;;
5549;SDS011;2798;42.716;23.256;2023-02-03T02:18:03;2.50;;;2.30;;
5549;SDS011;2798;42.716;23.256;2023-02-03T02:33:29;3.40;;;3.10;;
5549;SDS011;2798;42.716;23.256;2023-02-03T02:41:05;2.90;;;2.60;;
5549;SDS011;2798;42.716;23.256;2023-02-03T02:46:13;4.03;;;3.00;;
5549;SDS011;2798;42.716;23.256;2023-02-03T02:48:51;4.20;;;3.07;;
5549;SDS011;2798;42.716;23.256;2023-02-03T02:51:19;3.80;;;3.30;;
5549;SDS011;2798;42.716;23.256;2023-02-03T02:53:48;3.73;;;2.90;;
5549;SDS011;2798;42.716;23.256;2023-02-03T02:56:14;4.27;;;3.20;;
5549;SDS011;2798;42.716;23.256;2023-02-03T02:58:40;3.30;;;3.00;;
5549;SDS011;2798;42.716;23.256;2023-02-03T03:01:07;3.00;;;2.70;;
5549;SDS011;2798;42.716;23.256;2023-02-03T03:03:33;4.10;;;3.20;;
5549;SDS011;2798;42.716;23.256;2023-02-03T03:06:00;4.33;;;3.57;;
5549;SDS011;2798;42.716;23.256;2023-02-03T03:08:36;2.80;;;2.53;;
5549;SDS011;2798;42.716;23.256;2023-02-03T03:11:03;4.40;;;3.30;;
5549;SDS011;2798;42.716;23.256;2023-02-03T03:13:31;5.70;;;3.53;;
5549;SDS011;2798;42.716;23.256;2023-02-03T03:15:56;5.43;;;3.40;;
5549;SDS011;2798;42.716;23.256;2023-02-03T03:18:24;5.17;;;3.40;;
5549;SDS011;2798;42.716;23.256;2023-02-03T03:20:51;5.30;;;3.37;;
5549;SDS011;2798;42.716;23.256;2023-02-03T03:23:25;5.47;;;3.70;;
5549;SDS011;2798;42.716;23.256;2023-02-03T03:25:53;5.13;;;3.33;;
5549;SDS011;2798;42.716;23.256;2023-02-03T03:28:23;5.43;;;3.60;;
5549;SDS011;2798;42.716;23.256;2023-02-03T03:30:51;4.30;;;3.40;;
5549;SDS011;2798;42.716;23.256;2023-02-03T03:33:16;3.20;;;2.87;;
5549;SDS011;2798;42.716;23.256;2023-02-03T03:35:44;3.53;;;2.93;;
5549;SDS011;2798;42.716;23.256;2023-02-03T03:38:14;5.03;;;3.40;;
5549;SDS011;2798;42.716;23.256;2023-02-03T03:40:41;5.23;;;3.43;;
5549;SDS011;2798;42.716;23.256;2023-02-03T03:43:14;6.37;;;3.33;;
5549;SDS011;2798;42.716;23.256;2023-02-03T03:46:24;4.23;;;2.93;;
5549;SDS011;2798;42.716;23.256;2023-02-03T03:51:11;5.50;;;3.40;;
5549;SDS011;2798;42.716;23.256;2023-02-03T03:53:37;5.43;;;3.53;;
5549;SDS011;2798;42.716;23.256;2023-02-03T03:56:04;3.30;;;2.77;;
5549;SDS011;2798;42.716;23.256;2023-02-03T03:58:31;3.60;;;3.00;;
5549;SDS011;2798;42.716;23.256;2023-02-03T04:01:00;4.83;;;2.30;;
5549;SDS011;2798;42.716;23.256;2023-02-03T04:03:45;2.90;;;2.70;;
5549;SDS011;2798;42.716;23.256;2023-02-03T04:06:12;3.63;;;3.17;;
5549;SDS011;2798;42.716;23.256;2023-02-03T04:08:37;2.83;;;2.63;;
5549;SDS011;2798;42.716;23.256;2023-02-03T04:11:03;2.80;;;2.60;;
5549;SDS011;2798;42.716;23.256;2023-02-03T04:13:29;3.60;;;3.20;;
5549;SDS011;2798;42.716;23.256;2023-02-03T04:15:54;4.00;;;3.10;;
5549;SDS011;2798;42.716;23.256;2023-02-03T04:18:19;3.20;;;2.80;;
5549;SDS011;2798;42.716;23.256;2023-02-03T04:20:45;4.07;;;3.17;;
5549;SDS011;2798;42.716;23.256;2023-02-03T04:23:10;4.40;;;3.03;;
5549;SDS011;2798;42.716;23.256;2023-02-03T04:25:35;3.60;;;3.20;;
5549;SDS011;2798;42.716;23.256;2023-02-03T04:28:00;5.37;;;3.27;;
5549;SDS011;2798;42.716;23.256;2023-02-03T04:30:26;5.50;;;3.00;;
5549;SDS011;2798;42.716;23.256;2023-02-03T04:32:51;3.80;;;3.10;;
5549;SDS011;2798;42.716;23.256;2023-02-03T04:35:16;4.40;;;2.83;;
5549;SDS011;2798;42.716;23.256;2023-02-03T04:37:42;3.33;;;3.00;;
5549;SDS011;2798;42.716;23.256;2023-02-03T04:40:07;4.40;;;2.90;;
5549;SDS011;2798;42.716;23.256;2023-02-03T04:42:33;3.70;;;3.00;;
5549;SDS011;2798;42.716;23.256;2023-02-03T04:45:00;3.40;;;2.77;;
5549;SDS011;2798;42.716;23.256;2023-02-03T04:47:25;3.40;;;2.97;;
5549;SDS011;2798;42.716;23.256;2023-02-03T04:49:50;3.27;;;2.80;;
5549;SDS011;2798;42.716;23.256;2023-02-03T04:52:16;3.60;;;3.03;;
5549;SDS011;2798;42.716;23.256;2023-02-03T04:54:41;5.23;;;3.63;;
5549;SDS011;2798;42.716;23.256;2023-02-03T04:57:06;6.00;;;3.30;;
5549;SDS011;2798;42.716;23.256;2023-02-03T04:59:31;4.47;;;3.30;;
5549;SDS011;2798;42.716;23.256;2023-02-03T05:01:57;4.57;;;3.17;;
5549;SDS011;2798;42.716;23.256;2023-02-03T05:04:22;4.90;;;3.37;;
5549;SDS011;2798;42.716;23.256;2023-02-03T05:06:47;4.00;;;3.23;;
5549;SDS011;2798;42.716;23.256;2023-02-03T05:09:13;4.33;;;3.20;;
5549;SDS011;2798;42.716;23.256;2023-02-03T05:11:38;4.90;;;3.50;;
5549;SDS011;2798;42.716;23.256;2023-02-03T05:14:03;4.10;;;3.10;;
5549;SDS011;2798;42.716;23.256;2023-02-03T05:16:29;4.40;;;3.10;;
5549;SDS011;2798;42.716;23.256;2023-02-03T05:18:54;4.40;;;2.73;;
5549;SDS011;2798;42.716;23.256;2023-02-03T05:21:19;4.87;;;3.03;;
5549;SDS011;2798;42.716;23.256;2023-02-03T05:23:45;5.20;;;3.50;;
5549;SDS011;2798;42.716;23.256;2023-02-03T05:26:10;5.20;;;2.93;;
5549;SDS011;2798;42.716;23.256;2023-02-03T05:28:35;3.40;;;2.90;;
5549;SDS011;2798;42.716;23.256;2023-02-03T05:31:01;4.23;;;3.30;;
5549;SDS011;2798;42.716;23.256;2023-02-03T05:33:26;4.90;;;3.23;;
5549;SDS011;2798;42.716;23.256;2023-02-03T05:35:52;5.13;;;3.27;;
5549;SDS011;2798;42.716;23.256;2023-02-03T05:38:17;4.40;;;2.90;;
5549;SDS011;2798;42.716;23.256;2023-02-03T05:40:42;5.83;;;3.20;;
5549;SDS011;2798;42.716;23.256;2023-02-03T05:43:27;3.77;;;2.70;;
5549;SDS011;2798;42.716;23.256;2023-02-03T05:45:52;5.77;;;3.77;;
5549;SDS011;2798;42.716;23.256;2023-02-03T05:48:17;4.50;;;3.17;;
5549;SDS011;2798;42.716;23.256;2023-02-03T05:50:42;4.30;;;3.27;;
5549;SDS011;2798;42.716;23.256;2023-02-03T05:53:08;5.33;;;3.27;;
5549;SDS011;2798;42.716;23.256;2023-02-03T05:55:33;5.37;;;3.90;;
5549;SDS011;2798;42.716;23.256;2023-02-03T05:57:59;4.77;;;3.40;;
5549;SDS011;2798;42.716;23.256;2023-02-03T06:00:25;3.70;;;2.93;;
5549;SDS011;2798;42.716;23.256;2023-02-03T06:02:54;4.43;;;3.50;;
5549;SDS011;2798;42.716;23.256;2023-02-03T06:05:20;4.70;;;3.37;;
5549;SDS011;2798;42.716;23.256;2023-02-03T06:07:45;4.00;;;3.13;;
5549;SDS011;2798;42.716;23.256;2023-02-03T06:10:11;6.27;;;3.80;;
5549;SDS011;2798;42.716;23.256;2023-02-03T06:12:37;4.47;;;3.10;;
5549;SDS011;2798;42.716;23.256;2023-02-03T06:15:03;6.17;;;4.00;;
5549;SDS011;2798;42.716;23.256;2023-02-03T06:17:29;5.67;;;3.73;;
5549;SDS011;2798;42.716;23.256;2023-02-03T06:19:54;3.53;;;3.07;;
5549;SDS011;2798;42.716;23.256;2023-02-03T06:22:19;3.80;;;3.27;;
5549;SDS011;2798;42.716;23.256;2023-02-03T06:24:44;5.10;;;3.43;;
5549;SDS011;2798;42.716;23.256;2023-02-03T06:27:12;3.73;;;3.40;;
5549;SDS011;2798;42.716;23.256;2023-02-03T06:29:37;6.70;;;3.90;;
5549;SDS011;2798;42.716;23.256;2023-02-03T06:32:02;4.10;;;3.10;;
5549;SDS011;2798;42.716;23.256;2023-02-03T06:34:27;3.93;;;3.53;;
5549;SDS011;2798;42.716;23.256;2023-02-03T06:36:53;5.23;;;3.80;;
5549;SDS011;2798;42.716;23.256;2023-02-03T06:39:18;6.23;;;3.50;;
5549;SDS011;2798;42.716;23.256;2023-02-03T06:41:43;5.30;;;3.53;;
5549;SDS011;2798;42.716;23.256;2023-02-03T06:44:08;4.93;;;3.27;;
5549;SDS011;2798;42.716;23.256;2023-02-03T06:46:34;4.40;;;3.50;;
5549;SDS011;2798;42.716;23.256;2023-02-03T06:48:59;3.83;;;3.10;;
5549;SDS011;2798;42.716;23.256;2023-02-03T06:51:24;4.07;;;3.50;;
5549;SDS011;2798;42.716;23.256;2023-02-03T06:53:50;4.40;;;3.10;;
5549;SDS011;2798;42.716;23.256;2023-02-03T06:56:15;4.13;;;3.27;;
5549;SDS011;2798;42.716;23.256;2023-02-03T06:58:40;4.83;;;3.13;;
5549;SDS011;2798;42.716;23.256;2023-02-03T07:01:05;4.33;;;3.43;;
5549;SDS011;2798;42.716;23.256;2023-02-03T07:03:31;4.40;;;3.20;;
5549;SDS011;2798;42.716;23.256;2023-02-03T07:05:56;8.00;;;3.40;;
5549;SDS011;2798;42.716;23.256;2023-02-03T07:08:21;4.70;;;3.60;;
5549;SDS011;2798;42.716;23.256;2023-02-03T07:10:46;5.07;;;3.27;;
5549;SDS011;2798;42.716;23.256;2023-02-03T07:13:12;4.80;;;3.27;;
5549;SDS011;2798;42.716;23.256;2023-02-03T07:15:37;4.90;;;2.97;;
5549;SDS011;2798;42.716;23.256;2023-02-03T07:18:02;5.27;;;3.90;;
5549;SDS011;2798;42.716;23.256;2023-02-03T07:20:27;5.17;;;3.20;;
5549;SDS011;2798;42.716;23.256;2023-02-03T07:22:53;6.60;;;3.83;;
5549;SDS011;2798;42.716;23.256;2023-02-03T07:25:19;5.70;;;3.80;;
5549;SDS011;2798;42.716;23.256;2023-02-03T07:27:44;8.40;;;3.70;;
5549;SDS011;2798;42.716;23.256;2023-02-03T07:30:10;5.53;;;3.40;;
5549;SDS011;2798;42.716;23.256;2023-02-03T07:32:35;5.10;;;3.30;;
5549;SDS011;2798;42.716;23.256;2023-02-03T07:35:00;5.17;;;3.60;;
5549;SDS011;2798;42.716;23.256;2023-02-03T07:37:26;5.43;;;3.77;;
5549;SDS011;2798;42.716;23.256;2023-02-03T07:39:51;7.13;;;3.53;;
5549;SDS011;2798;42.716;23.256;2023-02-03T07:42:16;8.20;;;4.07;;
5549;SDS011;2798;42.716;23.256;2023-02-03T07:44:42;4.40;;;3.20;;
5549;SDS011;2798;42.716;23.256;2023-02-03T07:47:07;7.87;;;4.27;;
5549;SDS011;2798;42.716;23.256;2023-02-03T07:49:32;4.40;;;3.47;;
5549;SDS011;2798;42.716;23.256;2023-02-03T07:51:58;4.57;;;3.00;;
5549;SDS011;2798;42.716;23.256;2023-02-03T07:54:23;6.60;;;3.10;;
5549;SDS011;2798;42.716;23.256;2023-02-03T07:56:48;4.07;;;3.30;;
5549;SDS011;2798;42.716;23.256;2023-02-03T07:59:13;4.83;;;3.30;;
5549;SDS011;2798;42.716;23.256;2023-02-03T08:01:40;6.93;;;3.17;;
5549;SDS011;2798;42.716;23.256;2023-02-03T08:04:05;4.37;;;3.40;;
5549;SDS011;2798;42.716;23.256;2023-02-03T08:06:31;4.40;;;3.20;;
5549;SDS011;2798;42.716;23.256;2023-02-03T08:08:56;4.40;;;3.10;;
5549;SDS011;2798;42.716;23.256;2023-02-03T08:11:21;3.80;;;2.83;;
5549;SDS011;2798;42.716;23.256;2023-02-03T08:13:47;6.83;;;2.97;;
5549;SDS011;2798;42.716;23.256;2023-02-03T08:16:12;3.13;;;2.67;;
5549;SDS011;2798;42.716;23.256;2023-02-03T08:18:37;5.47;;;3.13;;
5549;SDS011;2798;42.716;23.256;2023-02-03T08:21:03;3.53;;;2.90;;
5549;SDS011;2798;42.716;23.256;2023-02-03T08:23:29;3.27;;;2.53;;
5549;SDS011;2798;42.716;23.256;2023-02-03T08:25:54;3.40;;;2.40;;
5549;SDS011;2798;42.716;23.256;2023-02-03T08:28:19;2.97;;;2.67;;
5549;SDS011;2798;42.716;23.256;2023-02-03T08:30:44;2.50;;;2.23;;
5549;SDS011;2798;42.716;23.256;2023-02-03T08:33:10;4.50;;;3.10;;
5549;SDS011;2798;42.716;23.256;2023-02-03T08:35:35;2.93;;;2.43;;
5549;SDS011;2798;42.716;23.256;2023-02-03T08:38:00;4.90;;;3.00;;
5549;SDS011;2798;42.716;23.256;2023-02-03T08:40:26;5.23;;;3.13;;
5549;SDS011;2798;42.716;23.256;2023-02-03T08:42:51;4.33;;;3.00;;
5549;SDS011;2798;42.716;23.256;2023-02-03T08:45:16;6.43;;;2.70;;
5549;SDS011;2798;42.716;23.256;2023-02-03T08:47:41;4.10;;;2.90;;
5549;SDS011;2798;42.716;23.256;2023-02-03T08:50:07;3.77;;;2.73;;
5549;SDS011;2798;42.716;23.256;2023-02-03T08:52:32;8.60;;;3.20;;
5549;SDS011;2798;42.716;23.256;2023-02-03T08:54:58;3.23;;;2.47;;
5549;SDS011;2798;42.716;23.256;2023-02-03T08:57:23;3.80;;;2.70;;
5549;SDS011;2798;42.716;23.256;2023-02-03T08:59:48;4.80;;;3.03;;
5549;SDS011;2798;42.716;23.256;2023-02-03T09:02:15;5.30;;;3.70;;
5549;SDS011;2798;42.716;23.256;2023-02-03T09:04:41;4.17;;;3.07;;
5549;SDS011;2798;42.716;23.256;2023-02-03T09:07:07;12.07;;;3.60;;
5549;SDS011;2798;42.716;23.256;2023-02-03T09:09:32;5.33;;;3.63;;
5549;SDS011;2798;42.716;23.256;2023-02-03T09:11:57;5.00;;;3.40;;
5549;SDS011;2798;42.716;23.256;2023-02-03T09:14:30;4.30;;;2.87;;
5549;SDS011;2798;42.716;23.256;2023-02-03T09:16:56;2.70;;;2.50;;
5549;SDS011;2798;42.716;23.256;2023-02-03T09:19:21;3.27;;;2.77;;
5549;SDS011;2798;42.716;23.256;2023-02-03T09:21:47;4.23;;;3.00;;
5549;SDS011;2798;42.716;23.256;2023-02-03T09:24:13;3.17;;;2.83;;
5549;SDS011;2798;42.716;23.256;2023-02-03T09:26:39;4.00;;;2.77;;
5549;SDS011;2798;42.716;23.256;2023-02-03T09:29:04;3.43;;;2.47;;
5549;SDS011;2798;42.716;23.256;2023-02-03T09:31:29;2.53;;;2.33;;
5549;SDS011;2798;42.716;23.256;2023-02-03T09:33:54;4.10;;;2.90;;
5549;SDS011;2798;42.716;23.256;2023-02-03T09:36:20;4.17;;;3.10;;
5549;SDS011;2798;42.716;23.256;2023-02-03T09:38:45;3.47;;;2.60;;
5549;SDS011;2798;42.716;23.256;2023-02-03T09:46:26;4.40;;;2.47;;
5549;SDS011;2798;42.716;23.256;2023-02-03T09:48:52;2.47;;;2.27;;
5549;SDS011;2798;42.716;23.256;2023-02-03T09:51:20;2.57;;;2.37;;
5549;SDS011;2798;42.716;23.256;2023-02-03T09:53:57;2.50;;;2.17;;
5549;SDS011;2798;42.716;23.256;2023-02-03T09:56:31;2.70;;;2.50;;
5549;SDS011;2798;42.716;23.256;2023-02-03T09:58:58;3.17;;;2.87;;
5549;SDS011;2798;42.716;23.256;2023-02-03T10:01:24;4.20;;;2.07;;
5549;SDS011;2798;42.716;23.256;2023-02-03T10:07:16;3.80;;;2.20;;
5549;SDS011;2798;42.716;23.256;2023-02-03T10:09:49;2.87;;;2.57;;
5549;SDS011;2798;42.716;23.256;2023-02-03T10:17:24;3.20;;;2.73;;
5549;SDS011;2798;42.716;23.256;2023-02-03T10:19:55;3.17;;;2.70;;
5549;SDS011;2798;42.716;23.256;2023-02-03T10:22:22;5.03;;;2.80;;
5549;SDS011;2798;42.716;23.256;2023-02-03T10:24:51;6.67;;;3.27;;
5549;SDS011;2798;42.716;23.256;2023-02-03T10:27:19;5.30;;;3.17;;
5549;SDS011;2798;42.716;23.256;2023-02-03T10:29:47;4.87;;;3.27;;
5549;SDS011;2798;42.716;23.256;2023-02-03T10:32:15;4.17;;;3.03;;
5549;SDS011;2798;42.716;23.256;2023-02-03T10:34:40;7.27;;;2.83;;
5549;SDS011;2798;42.716;23.256;2023-02-03T10:39:44;6.93;;;2.73;;
5549;SDS011;2798;42.716;23.256;2023-02-03T10:42:11;2.60;;;2.23;;
5549;SDS011;2798;42.716;23.256;2023-02-03T10:44:56;3.80;;;2.50;;
5549;SDS011;2798;42.716;23.256;2023-02-03T10:49:54;3.60;;;2.73;;
5549;SDS011;2798;42.716;23.256;2023-02-03T10:52:30;5.03;;;3.50;;
5549;SDS011;2798;42.716;23.256;2023-02-03T10:54:56;3.93;;;2.70;;
5549;SDS011;2798;42.716;23.256;2023-02-03T10:57:23;4.07;;;3.07;;
5549;SDS011;2798;42.716;23.256;2023-02-03T10:59:49;3.33;;;2.60;;
5549;SDS011;2798;42.716;23.256;2023-02-03T11:02:35;2.90;;;2.40;;
5549;SDS011;2798;42.716;23.256;2023-02-03T11:07:40;4.07;;;3.43;;
5549;SDS011;2798;42.716;23.256;2023-02-03T11:10:24;4.40;;;2.70;;
5549;SDS011;2798;42.716;23.256;2023-02-03T11:12:49;3.70;;;2.77;;
5549;SDS011;2798;42.716;23.256;2023-02-03T11:15:15;4.60;;;3.03;;
5549;SDS011;2798;42.716;23.256;2023-02-03T11:17:42;4.50;;;2.77;;
5549;SDS011;2798;42.716;23.256;2023-02-03T11:20:12;6.73;;;2.90;;
5549;SDS011;2798;42.716;23.256;2023-02-03T11:22:38;8.00;;;3.10;;
5549;SDS011;2798;42.716;23.256;2023-02-03T11:25:05;4.63;;;3.10;;
5549;SDS011;2798;42.716;23.256;2023-02-03T11:27:40;6.03;;;3.30;;
5549;SDS011;2798;42.716;23.256;2023-02-03T11:30:10;6.07;;;3.00;;
5549;SDS011;2798;42.716;23.256;2023-02-03T11:32:38;4.63;;;3.03;;
5549;SDS011;2798;42.716;23.256;2023-02-03T11:35:15;5.57;;;3.23;;
5549;SDS011;2798;42.716;23.256;2023-02-03T11:37:43;5.77;;;2.90;;
5549;SDS011;2798;42.716;23.256;2023-02-03T11:42:42;4.20;;;2.73;;
5549;SDS011;2798;42.716;23.256;2023-02-03T11:47:52;5.27;;;3.07;;
5549;SDS011;2798;42.716;23.256;2023-02-03T12:06:17;7.10;;;3.10;;
5549;SDS011;2798;42.716;23.256;2023-02-03T12:08:51;4.60;;;3.27;;
5549;SDS011;2798;42.716;23.256;2023-02-03T12:16:52;2.80;;;2.43;;
5549;SDS011;2798;42.716;23.256;2023-02-03T12:21:44;3.50;;;3.03;;
5549;SDS011;2798;42.716;23.256;2023-02-03T12:24:20;3.40;;;2.60;;
5549;SDS011;2798;42.716;23.256;2023-02-03T12:29:18;2.67;;;2.30;;
5549;SDS011;2798;42.716;23.256;2023-02-03T12:31:46;7.00;;;2.93;;
5549;SDS011;2798;42.716;23.256;2023-02-03T12:34:21;6.20;;;3.43;;
5549;SDS011;2798;42.716;23.256;2023-02-03T12:41:57;6.40;;;2.40;;
5549;SDS011;2798;42.716;23.256;2023-02-03T12:44:27;4.73;;;2.70;;
5549;SDS011;2798;42.716;23.256;2023-02-03T12:47:02;4.53;;;2.70;;
5549;SDS011;2798;42.716;23.256;2023-02-03T12:49:35;4.63;;;3.23;;
5549;SDS011;2798;42.716;23.256;2023-02-03T12:55:07;4.47;;;3.13;;
5549;SDS011;2798;42.716;23.256;2023-02-03T13:00:23;3.90;;;3.10;;
5549;SDS011;2798;42.716;23.256;2023-02-03T13:02:55;3.53;;;2.90;;
5549;SDS011;2798;42.716;23.256;2023-02-03T13:05:25;3.93;;;3.10;;
5549;SDS011;2798;42.716;23.256;2023-02-03T13:07:54;4.67;;;3.03;;
5549;SDS011;2798;42.716;23.256;2023-02-03T13:10:25;2.30;;;2.10;;
5549;SDS011;2798;42.716;23.256;2023-02-03T13:12:55;2.93;;;2.60;;
5549;SDS011;2798;42.716;23.256;2023-02-03T13:15:25;3.70;;;2.60;;
5549;SDS011;2798;42.716;23.256;2023-02-03T13:20:23;4.00;;;3.20;;
5549;SDS011;2798;42.716;23.256;2023-02-03T13:22:49;4.20;;;3.23;;
5549;SDS011;2798;42.716;23.256;2023-02-03T13:40:50;3.37;;;2.70;;
5549;SDS011;2798;42.716;23.256;2023-02-03T13:43:18;4.00;;;3.27;;
5549;SDS011;2798;42.716;23.256;2023-02-03T13:45:46;5.60;;;3.77;;
5549;SDS011;2798;42.716;23.256;2023-02-03T13:50:38;5.67;;;3.70;;
5549;SDS011;2798;42.716;23.256;2023-02-03T13:53:07;4.97;;;3.50;;
5549;SDS011;2798;42.716;23.256;2023-02-03T13:55:39;7.73;;;3.97;;
5549;SDS011;2798;42.716;23.256;2023-02-03T13:58:06;5.07;;;3.33;;
5549;SDS011;2798;42.716;23.256;2023-02-03T14:05:53;6.13;;;3.57;;
5549;SDS011;2798;42.716;23.256;2023-02-03T14:08:41;4.40;;;3.00;;
5549;SDS011;2798;42.716;23.256;2023-02-03T14:13:49;7.43;;;3.80;;
5549;SDS011;2798;42.716;23.256;2023-02-03T14:16:21;4.07;;;3.13;;
5549;SDS011;2798;42.716;23.256;2023-02-03T14:18:47;5.33;;;3.53;;
5549;SDS011;2798;42.716;23.256;2023-02-03T14:21:20;6.03;;;3.83;;
5549;SDS011;2798;42.716;23.256;2023-02-03T14:23:47;5.47;;;3.33;;
5549;SDS011;2798;42.716;23.256;2023-02-03T14:26:14;4.50;;;3.10;;
5549;SDS011;2798;42.716;23.256;2023-02-03T14:28:41;5.10;;;3.20;;
5549;SDS011;2798;42.716;23.256;2023-02-03T14:31:18;5.40;;;3.20;;
5549;SDS011;2798;42.716;23.256;2023-02-03T14:36:24;4.87;;;3.40;;
5549;SDS011;2798;42.716;23.256;2023-02-03T14:38:49;8.47;;;3.77;;
5549;SDS011;2798;42.716;23.256;2023-02-03T14:41:15;5.57;;;3.70;;
5549;SDS011;2798;42.716;23.256;2023-02-03T14:43:54;5.87;;;3.80;;
5549;SDS011;2798;42.716;23.256;2023-02-03T14:56:39;5.57;;;3.80;;
5549;SDS011;2798;42.716;23.256;2023-02-03T14:59:28;6.60;;;4.03;;
5549;SDS011;2798;42.716;23.256;2023-02-03T15:04:34;5.90;;;3.87;;
5549;SDS011;2798;42.716;23.256;2023-02-03T15:06:59;8.70;;;4.33;;
5549;SDS011;2798;42.716;23.256;2023-02-03T15:09:44;6.23;;;4.07;;
5549;SDS011;2798;42.716;23.256;2023-02-03T15:12:19;5.90;;;4.20;;
5549;SDS011;2798;42.716;23.256;2023-02-03T15:14:47;5.10;;;3.53;;
5549;SDS011;2798;42.716;23.256;2023-02-03T15:22:50;8.80;;;4.10;;
5549;SDS011;2798;42.716;23.256;2023-02-03T15:25:16;7.00;;;4.10;;
5549;SDS011;2798;42.716;23.256;2023-02-03T15:27:42;11.63;;;4.00;;
5549;SDS011;2798;42.716;23.256;2023-02-03T15:30:23;7.87;;;4.50;;
5549;SDS011;2798;42.716;23.256;2023-02-03T15:33:12;7.80;;;4.40;;
5549;SDS011;2798;42.716;23.256;2023-02-03T15:35:38;8.20;;;4.67;;
5549;SDS011;2798;42.716;23.256;2023-02-03T15:38:05;7.67;;;4.60;;
5549;SDS011;2798;42.716;23.256;2023-02-03T15:40:40;7.07;;;4.27;;
5549;SDS011;2798;42.716;23.256;2023-02-03T15:43:20;6.57;;;4.20;;
5549;SDS011;2798;42.716;23.256;2023-02-03T15:45:54;8.57;;;4.20;;
5549;SDS011;2798;42.716;23.256;2023-02-03T15:48:35;7.60;;;5.10;;
5549;SDS011;2798;42.716;23.256;2023-02-03T15:53:54;6.17;;;3.70;;
5549;SDS011;2798;42.716;23.256;2023-02-03T15:58:46;6.83;;;4.00;;
5549;SDS011;2798;42.716;23.256;2023-02-03T16:01:12;5.90;;;4.30;;
5549;SDS011;2798;42.716;23.256;2023-02-03T16:03:40;7.20;;;4.47;;
5549;SDS011;2798;42.716;23.256;2023-02-03T16:06:08;7.60;;;4.87;;
5549;SDS011;2798;42.716;23.256;2023-02-03T16:08:35;10.00;;;5.50;;
5549;SDS011;2798;42.716;23.256;2023-02-03T16:11:01;8.70;;;5.33;;
5549;SDS011;2798;42.716;23.256;2023-02-03T16:13:26;7.70;;;4.40;;
5549;SDS011;2798;42.716;23.256;2023-02-03T16:16:03;7.10;;;4.50;;
5549;SDS011;2798;42.716;23.256;2023-02-03T16:18:29;10.63;;;5.40;;
5549;SDS011;2798;42.716;23.256;2023-02-03T16:20:55;5.67;;;4.00;;
5549;SDS011;2798;42.716;23.256;2023-02-03T16:23:21;6.57;;;4.10;;
5549;SDS011;2798;42.716;23.256;2023-02-03T16:28:27;5.67;;;3.83;;
5549;SDS011;2798;42.716;23.256;2023-02-03T16:31:14;6.60;;;4.27;;
5549;SDS011;2798;42.716;23.256;2023-02-03T16:33:59;6.43;;;4.33;;
5549;SDS011;2798;42.716;23.256;2023-02-03T16:36:43;7.53;;;4.73;;
5549;SDS011;2798;42.716;23.256;2023-02-03T16:39:27;13.63;;;4.57;;
5549;SDS011;2798;42.716;23.256;2023-02-03T16:42:15;11.10;;;4.20;;
5549;SDS011;2798;42.716;23.256;2023-02-03T16:44:59;6.30;;;4.47;;
5549;SDS011;2798;42.716;23.256;2023-02-03T16:47:43;8.23;;;4.40;;
5549;SDS011;2798;42.716;23.256;2023-02-03T16:50:27;5.77;;;3.70;;
5549;SDS011;2798;42.716;23.256;2023-02-03T16:53:12;9.07;;;4.17;;
5549;SDS011;2798;42.716;23.256;2023-02-03T16:55:38;12.90;;;4.40;;
5549;SDS011;2798;42.716;23.256;2023-02-03T16:58:04;7.03;;;4.40;;
5549;SDS011;2798;42.716;23.256;2023-02-03T17:00:29;8.60;;;5.17;;
5549;SDS011;2798;42.716;23.256;2023-02-03T17:02:54;7.57;;;3.73;;
5549;SDS011;2798;42.716;23.256;2023-02-03T17:05:19;5.30;;;3.87;;
5549;SDS011;2798;42.716;23.256;2023-02-03T17:07:45;5.90;;;3.97;;
5549;SDS011;2798;42.716;23.256;2023-02-03T17:10:10;6.10;;;3.80;;
5549;SDS011;2798;42.716;23.256;2023-02-03T17:12:35;7.83;;;4.80;;
5549;SDS011;2798;42.716;23.256;2023-02-03T17:15:02;14.07;;;5.60;;
5549;SDS011;2798;42.716;23.256;2023-02-03T17:17:28;13.60;;;7.10;;
5549;SDS011;2798;42.716;23.256;2023-02-03T17:19:53;12.67;;;7.60;;
5549;SDS011;2798;42.716;23.256;2023-02-03T17:22:18;15.07;;;8.37;;
5549;SDS011;2798;42.716;23.256;2023-02-03T17:24:43;14.73;;;8.00;;
5549;SDS011;2798;42.716;23.256;2023-02-03T17:27:09;14.77;;;7.80;;
5549;SDS011;2798;42.716;23.256;2023-02-03T17:29:34;16.57;;;8.60;;